Terminal Aerodrome Forecast
Issued by NWS

Home | Current Version | Previous Version | Text Only | Print | Product List | Glossary On
Versions: 1 2 3 4 5 6 7 8 9 10 11 12 13 14 15
000
FTUS41 KLWX 241720
TAFMTN
TAF
KMTN 241720Z 2418/2518 28011G18KT P6SM SCT050 SCT250
     FM242300 25006KT P6SM FEW050 SCT250
     FM250400 VRB03KT P6SM FEW050 SCT250
     FM251500 29009G16KT P6SM SCT060=

USA.gov is the U.S. government's official web portal to all federal, state and local government web resources and services.